sensor_id;sensor_type;location;lat;lon;timestamp;P1;durP1;ratioP1;P2;durP2;ratioP2
24801;SDS011;12898;50.520;12.152;2023-08-17T00:00:00;22.10;;;13.00;;
24801;SDS011;12898;50.520;12.152;2023-08-17T00:02:28;18.77;;;14.15;;
24801;SDS011;12898;50.520;12.152;2023-08-17T00:04:54;19.33;;;13.60;;
24801;SDS011;12898;50.520;12.152;2023-08-17T00:07:20;20.77;;;14.90;;
24801;SDS011;12898;50.520;12.152;2023-08-17T00:09:45;19.73;;;13.93;;
24801;SDS011;12898;50.520;12.152;2023-08-17T00:12:12;18.55;;;13.95;;
24801;SDS011;12898;50.520;12.152;2023-08-17T00:14:38;19.48;;;13.57;;
24801;SDS011;12898;50.520;12.152;2023-08-17T00:17:04;21.38;;;15.18;;
24801;SDS011;12898;50.520;12.152;2023-08-17T00:19:30;20.50;;;15.35;;
24801;SDS011;12898;50.520;12.152;2023-08-17T00:21:55;22.63;;;15.45;;
24801;SDS011;12898;50.520;12.152;2023-08-17T00:24:21;20.55;;;14.32;;
24801;SDS011;12898;50.520;12.152;2023-08-17T00:26:47;18.75;;;14.20;;
24801;SDS011;12898;50.520;12.152;2023-08-17T00:29:12;25.20;;;16.08;;
24801;SDS011;12898;50.520;12.152;2023-08-17T00:31:40;20.70;;;14.23;;
24801;SDS011;12898;50.520;12.152;2023-08-17T00:34:06;20.40;;;14.48;;
24801;SDS011;12898;50.520;12.152;2023-08-17T00:36:32;19.92;;;15.10;;
24801;SDS011;12898;50.520;12.152;2023-08-17T00:38:57;21.02;;;14.63;;
24801;SDS011;12898;50.520;12.152;2023-08-17T00:41:23;20.45;;;15.02;;
24801;SDS011;12898;50.520;12.152;2023-08-17T00:43:49;21.15;;;14.65;;
24801;SDS011;12898;50.520;12.152;2023-08-17T00:46:14;34.70;;;17.83;;
24801;SDS011;12898;50.520;12.152;2023-08-17T00:48:41;21.35;;;15.75;;
24801;SDS011;12898;50.520;12.152;2023-08-17T00:51:07;20.50;;;14.57;;
24801;SDS011;12898;50.520;12.152;2023-08-17T00:53:34;19.08;;;14.48;;
24801;SDS011;12898;50.520;12.152;2023-08-17T00:56:00;21.60;;;15.25;;
24801;SDS011;12898;50.520;12.152;2023-08-17T00:58:26;19.15;;;14.30;;
24801;SDS011;12898;50.520;12.152;2023-08-17T01:00:52;20.38;;;14.02;;
24801;SDS011;12898;50.520;12.152;2023-08-17T01:03:18;17.73;;;13.90;;
24801;SDS011;12898;50.520;12.152;2023-08-17T01:05:46;18.67;;;14.02;;
24801;SDS011;12898;50.520;12.152;2023-08-17T01:08:11;19.05;;;14.93;;
24801;SDS011;12898;50.520;12.152;2023-08-17T01:10:41;19.55;;;14.52;;
24801;SDS011;12898;50.520;12.152;2023-08-17T01:13:31;20.77;;;14.50;;
24801;SDS011;12898;50.520;12.152;2023-08-17T01:16:11;20.15;;;14.65;;
24801;SDS011;12898;50.520;12.152;2023-08-17T01:18:41;20.52;;;14.50;;
24801;SDS011;12898;50.520;12.152;2023-08-17T01:21:10;18.35;;;14.70;;
24801;SDS011;12898;50.520;12.152;2023-08-17T01:23:44;21.30;;;15.63;;
24801;SDS011;12898;50.520;12.152;2023-08-17T01:26:10;20.15;;;14.43;;
24801;SDS011;12898;50.520;12.152;2023-08-17T01:28:40;18.80;;;14.48;;
24801;SDS011;12898;50.520;12.152;2023-08-17T01:31:09;20.15;;;14.80;;
24801;SDS011;12898;50.520;12.152;2023-08-17T01:33:44;18.73;;;13.15;;
24801;SDS011;12898;50.520;12.152;2023-08-17T01:36:26;22.55;;;14.48;;
24801;SDS011;12898;50.520;12.152;2023-08-17T01:39:08;20.10;;;13.32;;
24801;SDS011;12898;50.520;12.152;2023-08-17T01:41:34;18.45;;;13.80;;
24801;SDS011;12898;50.520;12.152;2023-08-17T01:44:03;19.30;;;13.32;;
24801;SDS011;12898;50.520;12.152;2023-08-17T01:46:30;19.67;;;14.60;;
24801;SDS011;12898;50.520;12.152;2023-08-17T01:48:57;21.30;;;14.55;;
24801;SDS011;12898;50.520;12.152;2023-08-17T01:51:23;19.00;;;14.57;;
24801;SDS011;12898;50.520;12.152;2023-08-17T01:53:50;20.13;;;15.50;;
24801;SDS011;12898;50.520;12.152;2023-08-17T01:56:16;22.52;;;16.00;;
24801;SDS011;12898;50.520;12.152;2023-08-17T01:58:42;21.38;;;15.30;;
24801;SDS011;12898;50.520;12.152;2023-08-17T02:01:08;22.15;;;15.25;;
24801;SDS011;12898;50.520;12.152;2023-08-17T02:03:34;21.77;;;15.80;;
24801;SDS011;12898;50.520;12.152;2023-08-17T02:06:00;21.65;;;16.08;;
24801;SDS011;12898;50.520;12.152;2023-08-17T02:08:26;21.13;;;16.85;;
24801;SDS011;12898;50.520;12.152;2023-08-17T02:10:52;22.27;;;16.23;;
24801;SDS011;12898;50.520;12.152;2023-08-17T02:13:17;20.55;;;16.23;;
24801;SDS011;12898;50.520;12.152;2023-08-17T02:15:44;17.98;;;15.13;;
24801;SDS011;12898;50.520;12.152;2023-08-17T02:18:11;19.88;;;15.63;;
24801;SDS011;12898;50.520;12.152;2023-08-17T02:20:37;23.70;;;16.00;;
24801;SDS011;12898;50.520;12.152;2023-08-17T02:23:03;22.33;;;14.88;;
24801;SDS011;12898;50.520;12.152;2023-08-17T02:25:29;19.30;;;14.73;;
24801;SDS011;12898;50.520;12.152;2023-08-17T02:28:00;23.95;;;15.05;;
24801;SDS011;12898;50.520;12.152;2023-08-17T02:30:28;23.58;;;14.55;;
24801;SDS011;12898;50.520;12.152;2023-08-17T02:32:54;21.73;;;14.65;;
24801;SDS011;12898;50.520;12.152;2023-08-17T02:35:20;22.77;;;15.90;;
24801;SDS011;12898;50.520;12.152;2023-08-17T02:37:45;19.65;;;14.85;;
24801;SDS011;12898;50.520;12.152;2023-08-17T02:40:11;19.85;;;15.43;;
24801;SDS011;12898;50.520;12.152;2023-08-17T02:42:37;19.33;;;14.57;;
24801;SDS011;12898;50.520;12.152;2023-08-17T02:45:04;21.48;;;16.05;;
24801;SDS011;12898;50.520;12.152;2023-08-17T02:47:32;22.08;;;15.32;;
24801;SDS011;12898;50.520;12.152;2023-08-17T02:49:57;24.20;;;18.33;;
24801;SDS011;12898;50.520;12.152;2023-08-17T02:52:23;26.67;;;19.10;;
24801;SDS011;12898;50.520;12.152;2023-08-17T02:54:48;26.27;;;20.25;;
24801;SDS011;12898;50.520;12.152;2023-08-17T02:57:14;25.33;;;19.23;;
24801;SDS011;12898;50.520;12.152;2023-08-17T02:59:40;24.48;;;18.83;;
24801;SDS011;12898;50.520;12.152;2023-08-17T03:02:06;23.00;;;19.15;;
24801;SDS011;12898;50.520;12.152;2023-08-17T03:04:31;26.83;;;21.75;;
24801;SDS011;12898;50.520;12.152;2023-08-17T03:06:57;28.63;;;22.83;;
24801;SDS011;12898;50.520;12.152;2023-08-17T03:09:23;29.38;;;24.40;;
24801;SDS011;12898;50.520;12.152;2023-08-17T03:11:49;31.00;;;25.02;;
24801;SDS011;12898;50.520;12.152;2023-08-17T03:14:14;34.33;;;27.25;;
24801;SDS011;12898;50.520;12.152;2023-08-17T03:16:40;31.75;;;27.42;;
24801;SDS011;12898;50.520;12.152;2023-08-17T03:19:06;34.45;;;27.02;;
24801;SDS011;12898;50.520;12.152;2023-08-17T03:21:33;35.78;;;27.65;;
24801;SDS011;12898;50.520;12.152;2023-08-17T03:23:59;30.20;;;26.42;;
24801;SDS011;12898;50.520;12.152;2023-08-17T03:26:24;33.30;;;27.00;;
24801;SDS011;12898;50.520;12.152;2023-08-17T03:28:50;34.20;;;24.33;;
24801;SDS011;12898;50.520;12.152;2023-08-17T03:31:16;27.70;;;24.25;;
24801;SDS011;12898;50.520;12.152;2023-08-17T03:33:41;29.85;;;24.80;;
24801;SDS011;12898;50.520;12.152;2023-08-17T03:36:07;28.10;;;23.17;;
24801;SDS011;12898;50.520;12.152;2023-08-17T03:38:33;27.40;;;24.25;;
24801;SDS011;12898;50.520;12.152;2023-08-17T03:40:58;23.65;;;20.30;;
24801;SDS011;12898;50.520;12.152;2023-08-17T03:43:24;22.85;;;18.63;;
24801;SDS011;12898;50.520;12.152;2023-08-17T03:45:51;22.95;;;16.25;;
24801;SDS011;12898;50.520;12.152;2023-08-17T03:48:16;18.58;;;15.52;;
24801;SDS011;12898;50.520;12.152;2023-08-17T03:50:42;19.25;;;15.15;;
24801;SDS011;12898;50.520;12.152;2023-08-17T03:53:08;22.98;;;16.55;;
24801;SDS011;12898;50.520;12.152;2023-08-17T03:55:34;22.17;;;17.83;;
24801;SDS011;12898;50.520;12.152;2023-08-17T03:57:59;22.85;;;17.65;;
24801;SDS011;12898;50.520;12.152;2023-08-17T04:00:25;20.13;;;16.67;;
24801;SDS011;12898;50.520;12.152;2023-08-17T04:02:50;18.63;;;14.82;;
24801;SDS011;12898;50.520;12.152;2023-08-17T04:05:19;17.30;;;14.13;;
24801;SDS011;12898;50.520;12.152;2023-08-17T04:07:44;17.85;;;12.70;;
24801;SDS011;12898;50.520;12.152;2023-08-17T04:10:10;14.32;;;11.02;;
24801;SDS011;12898;50.520;12.152;2023-08-17T04:12:36;16.90;;;10.93;;
24801;SDS011;12898;50.520;12.152;2023-08-17T04:15:01;14.88;;;9.57;;
24801;SDS011;12898;50.520;12.152;2023-08-17T04:17:27;14.73;;;9.00;;
24801;SDS011;12898;50.520;12.152;2023-08-17T04:19:53;13.40;;;8.27;;
24801;SDS011;12898;50.520;12.152;2023-08-17T04:22:19;13.82;;;8.27;;
24801;SDS011;12898;50.520;12.152;2023-08-17T04:24:44;12.38;;;8.07;;
24801;SDS011;12898;50.520;12.152;2023-08-17T04:27:10;11.38;;;7.60;;
24801;SDS011;12898;50.520;12.152;2023-08-17T04:29:38;11.43;;;7.85;;
24801;SDS011;12898;50.520;12.152;2023-08-17T04:32:03;11.13;;;7.30;;
24801;SDS011;12898;50.520;12.152;2023-08-17T04:34:29;11.60;;;7.45;;
24801;SDS011;12898;50.520;12.152;2023-08-17T04:36:55;11.90;;;7.07;;
24801;SDS011;12898;50.520;12.152;2023-08-17T04:39:20;15.00;;;7.90;;
24801;SDS011;12898;50.520;12.152;2023-08-17T04:41:46;11.60;;;7.93;;
24801;SDS011;12898;50.520;12.152;2023-08-17T04:44:12;11.85;;;8.48;;
24801;SDS011;12898;50.520;12.152;2023-08-17T04:46:37;13.70;;;8.15;;
24801;SDS011;12898;50.520;12.152;2023-08-17T04:49:03;11.18;;;7.75;;
24801;SDS011;12898;50.520;12.152;2023-08-17T04:51:28;12.27;;;7.47;;
24801;SDS011;12898;50.520;12.152;2023-08-17T04:53:55;13.25;;;7.40;;
24801;SDS011;12898;50.520;12.152;2023-08-17T04:56:20;8.70;;;5.95;;
24801;SDS011;12898;50.520;12.152;2023-08-17T04:58:46;9.18;;;5.40;;
24801;SDS011;12898;50.520;12.152;2023-08-17T05:01:12;8.30;;;5.57;;
24801;SDS011;12898;50.520;12.152;2023-08-17T05:03:37;9.55;;;5.38;;
24801;SDS011;12898;50.520;12.152;2023-08-17T05:06:03;12.30;;;6.10;;
24801;SDS011;12898;50.520;12.152;2023-08-17T05:08:29;10.73;;;5.65;;
24801;SDS011;12898;50.520;12.152;2023-08-17T05:10:54;9.10;;;5.70;;
24801;SDS011;12898;50.520;12.152;2023-08-17T05:13:20;8.30;;;5.53;;
24801;SDS011;12898;50.520;12.152;2023-08-17T05:15:46;9.68;;;6.10;;
24801;SDS011;12898;50.520;12.152;2023-08-17T05:18:11;10.48;;;5.65;;
24801;SDS011;12898;50.520;12.152;2023-08-17T05:20:37;8.75;;;5.50;;
24801;SDS011;12898;50.520;12.152;2023-08-17T05:23:02;8.50;;;5.65;;
24801;SDS011;12898;50.520;12.152;2023-08-17T05:25:29;8.65;;;5.25;;
24801;SDS011;12898;50.520;12.152;2023-08-17T05:27:54;6.45;;;4.82;;
24801;SDS011;12898;50.520;12.152;2023-08-17T05:30:20;6.63;;;4.53;;
24801;SDS011;12898;50.520;12.152;2023-08-17T05:32:46;6.43;;;3.70;;
24801;SDS011;12898;50.520;12.152;2023-08-17T05:35:12;8.32;;;3.85;;
24801;SDS011;12898;50.520;12.152;2023-08-17T05:37:38;6.72;;;3.17;;
24801;SDS011;12898;50.520;12.152;2023-08-17T05:40:04;4.07;;;2.90;;
24801;SDS011;12898;50.520;12.152;2023-08-17T05:42:30;4.53;;;3.00;;
24801;SDS011;12898;50.520;12.152;2023-08-17T05:44:56;5.28;;;2.40;;
24801;SDS011;12898;50.520;12.152;2023-08-17T05:47:22;7.57;;;2.40;;
24801;SDS011;12898;50.520;12.152;2023-08-17T05:49:47;4.30;;;2.80;;
24801;SDS011;12898;50.520;12.152;2023-08-17T05:52:13;7.35;;;2.80;;
24801;SDS011;12898;50.520;12.152;2023-08-17T05:54:39;3.63;;;2.50;;
24801;SDS011;12898;50.520;12.152;2023-08-17T05:57:04;4.82;;;2.88;;
24801;SDS011;12898;50.520;12.152;2023-08-17T05:59:30;5.57;;;2.75;;
24801;SDS011;12898;50.520;12.152;2023-08-17T06:01:56;4.40;;;2.42;;
24801;SDS011;12898;50.520;12.152;2023-08-17T06:04:21;3.45;;;2.80;;
24801;SDS011;12898;50.520;12.152;2023-08-17T06:06:47;6.50;;;2.63;;
24801;SDS011;12898;50.520;12.152;2023-08-17T06:09:13;3.63;;;2.90;;
24801;SDS011;12898;50.520;12.152;2023-08-17T06:11:39;6.97;;;3.08;;
24801;SDS011;12898;50.520;12.152;2023-08-17T06:14:06;7.28;;;3.00;;
24801;SDS011;12898;50.520;12.152;2023-08-17T06:16:32;3.58;;;2.65;;
24801;SDS011;12898;50.520;12.152;2023-08-17T06:18:57;6.15;;;2.80;;
24801;SDS011;12898;50.520;12.152;2023-08-17T06:21:23;4.32;;;2.70;;
24801;SDS011;12898;50.520;12.152;2023-08-17T06:23:49;3.47;;;2.42;;
24801;SDS011;12898;50.520;12.152;2023-08-17T06:26:14;5.97;;;2.63;;
24801;SDS011;12898;50.520;12.152;2023-08-17T06:28:40;4.63;;;2.38;;
24801;SDS011;12898;50.520;12.152;2023-08-17T06:31:06;3.47;;;2.30;;
24801;SDS011;12898;50.520;12.152;2023-08-17T06:33:32;5.10;;;2.17;;
24801;SDS011;12898;50.520;12.152;2023-08-17T06:35:57;3.58;;;1.98;;
24801;SDS011;12898;50.520;12.152;2023-08-17T06:38:23;3.78;;;2.30;;
24801;SDS011;12898;50.520;12.152;2023-08-17T06:40:49;2.78;;;1.92;;
24801;SDS011;12898;50.520;12.152;2023-08-17T06:43:17;3.60;;;2.17;;
24801;SDS011;12898;50.520;12.152;2023-08-17T06:45:43;3.28;;;2.58;;
24801;SDS011;12898;50.520;12.152;2023-08-17T06:48:09;3.45;;;2.42;;
24801;SDS011;12898;50.520;12.152;2023-08-17T06:50:34;2.88;;;2.13;;
24801;SDS011;12898;50.520;12.152;2023-08-17T06:53:01;2.20;;;2.00;;
24801;SDS011;12898;50.520;12.152;2023-08-17T06:55:27;3.10;;;2.00;;
24801;SDS011;12898;50.520;12.152;2023-08-17T06:57:53;3.47;;;2.10;;
24801;SDS011;12898;50.520;12.152;2023-08-17T07:00:20;4.00;;;2.33;;
24801;SDS011;12898;50.520;12.152;2023-08-17T07:02:48;2.50;;;2.00;;
24801;SDS011;12898;50.520;12.152;2023-08-17T07:05:15;4.18;;;1.90;;
24801;SDS011;12898;50.520;12.152;2023-08-17T07:07:41;2.85;;;2.17;;
24801;SDS011;12898;50.520;12.152;2023-08-17T07:10:08;2.97;;;2.10;;
24801;SDS011;12898;50.520;12.152;2023-08-17T07:12:35;4.28;;;2.08;;
24801;SDS011;12898;50.520;12.152;2023-08-17T07:15:05;3.63;;;1.95;;
24801;SDS011;12898;50.520;12.152;2023-08-17T07:17:32;2.55;;;2.28;;
24801;SDS011;12898;50.520;12.152;2023-08-17T07:19:59;3.03;;;2.30;;
24801;SDS011;12898;50.520;12.152;2023-08-17T07:22:25;2.70;;;2.50;;
24801;SDS011;12898;50.520;12.152;2023-08-17T07:24:50;5.72;;;2.60;;
24801;SDS011;12898;50.520;12.152;2023-08-17T07:27:16;2.53;;;2.30;;
24801;SDS011;12898;50.520;12.152;2023-08-17T07:29:42;3.05;;;2.40;;
24801;SDS011;12898;50.520;12.152;2023-08-17T07:32:07;3.75;;;2.40;;
24801;SDS011;12898;50.520;12.152;2023-08-17T07:34:34;4.10;;;2.80;;
24801;SDS011;12898;50.520;12.152;2023-08-17T07:37:01;5.65;;;3.22;;
24801;SDS011;12898;50.520;12.152;2023-08-17T07:39:26;4.50;;;3.03;;
24801;SDS011;12898;50.520;12.152;2023-08-17T07:41:52;4.78;;;3.10;;
24801;SDS011;12898;50.520;12.152;2023-08-17T07:44:18;4.82;;;3.65;;
24801;SDS011;12898;50.520;12.152;2023-08-17T07:46:44;4.57;;;3.78;;
24801;SDS011;12898;50.520;12.152;2023-08-17T07:49:09;7.05;;;4.53;;
24801;SDS011;12898;50.520;12.152;2023-08-17T07:51:35;6.72;;;4.47;;
24801;SDS011;12898;50.520;12.152;2023-08-17T07:54:01;6.25;;;4.28;;
24801;SDS011;12898;50.520;12.152;2023-08-17T07:56:26;7.00;;;4.55;;
24801;SDS011;12898;50.520;12.152;2023-08-17T07:58:55;5.97;;;4.40;;
24801;SDS011;12898;50.520;12.152;2023-08-17T08:01:21;6.30;;;4.60;;
24801;SDS011;12898;50.520;12.152;2023-08-17T08:03:46;7.72;;;4.70;;
24801;SDS011;12898;50.520;12.152;2023-08-17T08:06:12;7.97;;;5.45;;
24801;SDS011;12898;50.520;12.152;2023-08-17T08:08:38;10.98;;;5.47;;
24801;SDS011;12898;50.520;12.152;2023-08-17T08:11:04;7.22;;;5.50;;
24801;SDS011;12898;50.520;12.152;2023-08-17T08:13:30;8.00;;;5.68;;
24801;SDS011;12898;50.520;12.152;2023-08-17T08:15:57;6.57;;;5.50;;
24801;SDS011;12898;50.520;12.152;2023-08-17T08:18:23;8.38;;;5.57;;
24801;SDS011;12898;50.520;12.152;2023-08-17T08:20:50;8.40;;;5.38;;
24801;SDS011;12898;50.520;12.152;2023-08-17T08:23:15;6.07;;;5.13;;
24801;SDS011;12898;50.520;12.152;2023-08-17T08:25:41;8.57;;;5.50;;
24801;SDS011;12898;50.520;12.152;2023-08-17T08:28:07;6.93;;;5.63;;
24801;SDS011;12898;50.520;12.152;2023-08-17T08:30:33;7.82;;;5.97;;
24801;SDS011;12898;50.520;12.152;2023-08-17T08:32:59;7.72;;;5.82;;
24801;SDS011;12898;50.520;12.152;2023-08-17T08:35:26;8.23;;;6.18;;
24801;SDS011;12898;50.520;12.152;2023-08-17T08:37:54;8.98;;;6.55;;
24801;SDS011;12898;50.520;12.152;2023-08-17T08:40:26;10.88;;;6.32;;
24801;SDS011;12898;50.520;12.152;2023-08-17T08:42:54;8.73;;;6.57;;
24801;SDS011;12898;50.520;12.152;2023-08-17T08:45:24;9.90;;;6.28;;
24801;SDS011;12898;50.520;12.152;2023-08-17T08:47:52;9.23;;;7.03;;
24801;SDS011;12898;50.520;12.152;2023-08-17T08:50:19;7.85;;;6.60;;
24801;SDS011;12898;50.520;12.152;2023-08-17T08:52:59;7.53;;;6.38;;
24801;SDS011;12898;50.520;12.152;2023-08-17T08:55:28;11.73;;;7.35;;
24801;SDS011;12898;50.520;12.152;2023-08-17T08:57:59;9.75;;;7.30;;
24801;SDS011;12898;50.520;12.152;2023-08-17T09:00:25;8.85;;;6.47;;
24801;SDS011;12898;50.520;12.152;2023-08-17T09:02:52;9.68;;;6.90;;
24801;SDS011;12898;50.520;12.152;2023-08-17T09:05:18;10.57;;;7.13;;
24801;SDS011;12898;50.520;12.152;2023-08-17T09:07:47;10.07;;;7.05;;
24801;SDS011;12898;50.520;12.152;2023-08-17T09:10:14;9.98;;;7.45;;
24801;SDS011;12898;50.520;12.152;2023-08-17T09:12:41;11.57;;;7.15;;
24801;SDS011;12898;50.520;12.152;2023-08-17T09:15:10;10.30;;;7.95;;
24801;SDS011;12898;50.520;12.152;2023-08-17T09:17:36;10.00;;;7.35;;
24801;SDS011;12898;50.520;12.152;2023-08-17T09:20:03;9.25;;;6.88;;
24801;SDS011;12898;50.520;12.152;2023-08-17T09:22:47;8.43;;;6.55;;
24801;SDS011;12898;50.520;12.152;2023-08-17T09:25:21;9.57;;;7.32;;
24801;SDS011;12898;50.520;12.152;2023-08-17T09:27:48;11.25;;;7.50;;
24801;SDS011;12898;50.520;12.152;2023-08-17T09:30:14;8.65;;;7.25;;
24801;SDS011;12898;50.520;12.152;2023-08-17T09:32:39;9.27;;;7.43;;
24801;SDS011;12898;50.520;12.152;2023-08-17T09:35:06;11.20;;;7.68;;
24801;SDS011;12898;50.520;12.152;2023-08-17T09:37:33;10.70;;;8.18;;
24801;SDS011;12898;50.520;12.152;2023-08-17T09:39:59;9.43;;;7.65;;
24801;SDS011;12898;50.520;12.152;2023-08-17T09:42:25;10.93;;;7.80;;
24801;SDS011;12898;50.520;12.152;2023-08-17T09:44:52;11.13;;;8.50;;
24801;SDS011;12898;50.520;12.152;2023-08-17T09:47:19;11.35;;;8.48;;
24801;SDS011;12898;50.520;12.152;2023-08-17T09:49:49;12.30;;;8.95;;
24801;SDS011;12898;50.520;12.152;2023-08-17T09:52:19;10.27;;;8.10;;
24801;SDS011;12898;50.520;12.152;2023-08-17T09:54:51;9.50;;;8.05;;
24801;SDS011;12898;50.520;12.152;2023-08-17T09:57:19;9.68;;;7.80;;
24801;SDS011;12898;50.520;12.152;2023-08-17T09:59:45;11.50;;;8.40;;
24801;SDS011;12898;50.520;12.152;2023-08-17T10:02:18;10.88;;;8.38;;
24801;SDS011;12898;50.520;12.152;2023-08-17T10:04:52;11.00;;;8.20;;
24801;SDS011;12898;50.520;12.152;2023-08-17T10:07:19;10.27;;;8.60;;
24801;SDS011;12898;50.520;12.152;2023-08-17T10:09:48;10.30;;;8.35;;
24801;SDS011;12898;50.520;12.152;2023-08-17T10:12:22;9.68;;;7.63;;
24801;SDS011;12898;50.520;12.152;2023-08-17T10:14:55;14.75;;;9.02;;
24801;SDS011;12898;50.520;12.152;2023-08-17T10:17:30;11.40;;;8.70;;
24801;SDS011;12898;50.520;12.152;2023-08-17T10:20:45;11.63;;;8.70;;
24801;SDS011;12898;50.520;12.152;2023-08-17T10:23:22;12.80;;;8.65;;
24801;SDS011;12898;50.520;12.152;2023-08-17T10:25:49;13.05;;;9.15;;
24801;SDS011;12898;50.520;12.152;2023-08-17T10:28:15;13.48;;;8.90;;
24801;SDS011;12898;50.520;12.152;2023-08-17T10:30:42;10.70;;;8.35;;
24801;SDS011;12898;50.520;12.152;2023-08-17T10:33:08;11.73;;;8.73;;
24801;SDS011;12898;50.520;12.152;2023-08-17T10:35:35;12.48;;;8.43;;
24801;SDS011;12898;50.520;12.152;2023-08-17T10:38:03;11.27;;;8.73;;
24801;SDS011;12898;50.520;12.152;2023-08-17T10:40:36;10.00;;;7.88;;
24801;SDS011;12898;50.520;12.152;2023-08-17T10:43:05;12.32;;;8.00;;
24801;SDS011;12898;50.520;12.152;2023-08-17T10:45:32;11.88;;;8.57;;
24801;SDS011;12898;50.520;12.152;2023-08-17T10:48:45;10.00;;;8.40;;
24801;SDS011;12898;50.520;12.152;2023-08-17T10:50:59;10.85;;;8.98;;
24801;SDS011;12898;50.520;12.152;2023-08-17T10:53:32;10.88;;;8.32;;
24801;SDS011;12898;50.520;12.152;2023-08-17T10:56:04;11.55;;;9.57;;
24801;SDS011;12898;50.520;12.152;2023-08-17T10:58:32;11.57;;;8.02;;
24801;SDS011;12898;50.520;12.152;2023-08-17T11:00:59;17.38;;;9.88;;
24801;SDS011;12898;50.520;12.152;2023-08-17T11:03:24;15.02;;;9.60;;
24801;SDS011;12898;50.520;12.152;2023-08-17T11:05:53;14.73;;;9.52;;
24801;SDS011;12898;50.520;12.152;2023-08-17T11:08:28;12.80;;;9.02;;
24801;SDS011;12898;50.520;12.152;2023-08-17T11:11:04;10.65;;;8.90;;
24801;SDS011;12898;50.520;12.152;2023-08-17T11:13:32;10.57;;;8.32;;
24801;SDS011;12898;50.520;12.152;2023-08-17T11:16:03;11.73;;;8.38;;
24801;SDS011;12898;50.520;12.152;2023-08-17T11:18:33;11.90;;;8.60;;
24801;SDS011;12898;50.520;12.152;2023-08-17T11:21:04;11.75;;;8.38;;
24801;SDS011;12898;50.520;12.152;2023-08-17T11:23:31;11.38;;;8.85;;
24801;SDS011;12898;50.520;12.152;2023-08-17T11:25:59;12.45;;;8.40;;
24801;SDS011;12898;50.520;12.152;2023-08-17T11:28:25;13.45;;;9.13;;
24801;SDS011;12898;50.520;12.152;2023-08-17T11:31:01;14.73;;;9.27;;
24801;SDS011;12898;50.520;12.152;2023-08-17T11:33:33;13.75;;;9.05;;
24801;SDS011;12898;50.520;12.152;2023-08-17T11:36:00;10.60;;;8.63;;
24801;SDS011;12898;50.520;12.152;2023-08-17T11:38:33;10.60;;;8.50;;
24801;SDS011;12898;50.520;12.152;2023-08-17T11:41:05;11.32;;;8.40;;
24801;SDS011;12898;50.520;12.152;2023-08-17T11:43:33;14.40;;;8.65;;
24801;SDS011;12898;50.520;12.152;2023-08-17T11:45:59;12.40;;;8.60;;
24801;SDS011;12898;50.520;12.152;2023-08-17T11:48:26;13.35;;;8.95;;
24801;SDS011;12898;50.520;12.152;2023-08-17T11:50:53;12.77;;;9.35;;
24801;SDS011;12898;50.520;12.152;2023-08-17T11:53:23;12.32;;;8.93;;
24801;SDS011;12898;50.520;12.152;2023-08-17T11:55:49;10.77;;;8.10;;
24801;SDS011;12898;50.520;12.152;2023-08-17T11:58:15;11.52;;;8.88;;
24801;SDS011;12898;50.520;12.152;2023-08-17T12:00:41;11.70;;;8.30;;
24801;SDS011;12898;50.520;12.152;2023-08-17T12:03:14;10.35;;;8.55;;
24801;SDS011;12898;50.520;12.152;2023-08-17T12:05:41;11.18;;;8.57;;
24801;SDS011;12898;50.520;12.152;2023-08-17T12:08:07;11.90;;;8.27;;
24801;SDS011;12898;50.520;12.152;2023-08-17T12:10:33;10.80;;;8.80;;
24801;SDS011;12898;50.520;12.152;2023-08-17T12:12:59;11.95;;;8.52;;
24801;SDS011;12898;50.520;12.152;2023-08-17T12:15:32;12.85;;;8.20;;
24801;SDS011;12898;50.520;12.152;2023-08-17T12:18:01;11.90;;;9.00;;
24801;SDS011;12898;50.520;12.152;2023-08-17T12:20:28;9.55;;;8.55;;
24801;SDS011;12898;50.520;12.152;2023-08-17T12:22:56;13.45;;;9.10;;
24801;SDS011;12898;50.520;12.152;2023-08-17T12:25:26;12.25;;;9.32;;
24801;SDS011;12898;50.520;12.152;2023-08-17T12:27:51;13.20;;;8.45;;
24801;SDS011;12898;50.520;12.152;2023-08-17T12:30:27;12.68;;;8.95;;
24801;SDS011;12898;50.520;12.152;2023-08-17T12:32:56;13.38;;;9.25;;
24801;SDS011;12898;50.520;12.152;2023-08-17T12:35:22;13.00;;;8.85;;
24801;SDS011;12898;50.520;12.152;2023-08-17T12:37:49;10.50;;;8.68;;
24801;SDS011;12898;50.520;12.152;2023-08-17T12:40:16;15.48;;;8.40;;
24801;SDS011;12898;50.520;12.152;2023-08-17T12:42:42;9.75;;;8.30;;
24801;SDS011;12898;50.520;12.152;2023-08-17T12:45:07;12.45;;;8.88;;
24801;SDS011;12898;50.520;12.152;2023-08-17T12:47:34;10.77;;;8.82;;
24801;SDS011;12898;50.520;12.152;2023-08-17T12:49:59;10.63;;;8.45;;
24801;SDS011;12898;50.520;12.152;2023-08-17T12:52:25;13.73;;;8.60;;
24801;SDS011;12898;50.520;12.152;2023-08-17T12:54:52;11.43;;;8.18;;
24801;SDS011;12898;50.520;12.152;2023-08-17T12:57:18;11.07;;;8.90;;
24801;SDS011;12898;50.520;12.152;2023-08-17T12:59:44;10.75;;;8.32;;
24801;SDS011;12898;50.520;12.152;2023-08-17T13:02:10;9.80;;;8.30;;
24801;SDS011;12898;50.520;12.152;2023-08-17T13:04:36;10.90;;;8.50;;
24801;SDS011;12898;50.520;12.152;2023-08-17T13:07:02;10.43;;;8.18;;
24801;SDS011;12898;50.520;12.152;2023-08-17T13:09:27;14.32;;;9.10;;
24801;SDS011;12898;50.520;12.152;2023-08-17T13:11:53;11.18;;;8.00;;
24801;SDS011;12898;50.520;12.152;2023-08-17T13:14:19;14.43;;;8.45;;
24801;SDS011;12898;50.520;12.152;2023-08-17T13:16:44;11.52;;;8.27;;
24801;SDS011;12898;50.520;12.152;2023-08-17T13:19:10;12.52;;;7.85;;
24801;SDS011;12898;50.520;12.152;2023-08-17T13:21:35;8.77;;;6.25;;
24801;SDS011;12898;50.520;12.152;2023-08-17T13:24:01;11.18;;;7.30;;
24801;SDS011;12898;50.520;12.152;2023-08-17T13:26:28;11.05;;;6.28;;
24801;SDS011;12898;50.520;12.152;2023-08-17T13:28:55;8.90;;;4.78;;
24801;SDS011;12898;50.520;12.152;2023-08-17T13:31:21;6.50;;;3.20;;
24801;SDS011;12898;50.520;12.152;2023-08-17T13:33:46;7.97;;;3.42;;
24801;SDS011;12898;50.520;12.152;2023-08-17T13:36:12;6.32;;;3.25;;
24801;SDS011;12898;50.520;12.152;2023-08-17T13:38:37;4.50;;;2.97;;
24801;SDS011;12898;50.520;12.152;2023-08-17T13:41:03;6.00;;;2.50;;
24801;SDS011;12898;50.520;12.152;2023-08-17T13:43:29;3.97;;;2.85;;
24801;SDS011;12898;50.520;12.152;2023-08-17T13:45:55;6.15;;;2.70;;
24801;SDS011;12898;50.520;12.152;2023-08-17T13:48:21;5.05;;;2.70;;
24801;SDS011;12898;50.520;12.152;2023-08-17T13:50:47;4.68;;;2.60;;
24801;SDS011;12898;50.520;12.152;2023-08-17T13:53:12;4.03;;;2.30;;
24801;SDS011;12898;50.520;12.152;2023-08-17T13:55:38;8.35;;;2.95;;
24801;SDS011;12898;50.520;12.152;2023-08-17T13:58:03;12.55;;;4.53;;
24801;SDS011;12898;50.520;12.152;2023-08-17T14:00:29;11.45;;;5.70;;
24801;SDS011;12898;50.520;12.152;2023-08-17T14:02:55;7.05;;;3.67;;
24801;SDS011;12898;50.520;12.152;2023-08-17T14:05:20;8.35;;;4.10;;
24801;SDS011;12898;50.520;12.152;2023-08-17T14:07:46;7.72;;;4.47;;
24801;SDS011;12898;50.520;12.152;2023-08-17T14:10:12;6.70;;;4.40;;
24801;SDS011;12898;50.520;12.152;2023-08-17T14:12:38;7.88;;;4.72;;
24801;SDS011;12898;50.520;12.152;2023-08-17T14:15:04;7.43;;;4.75;;
24801;SDS011;12898;50.520;12.152;2023-08-17T14:17:31;8.30;;;4.35;;
24801;SDS011;12898;50.520;12.152;2023-08-17T14:19:57;10.95;;;4.50;;
24801;SDS011;12898;50.520;12.152;2023-08-17T14:22:22;12.40;;;4.60;;